Current Weather

Tahoua

Tahoua, Niger (DRRT)

Report from: Wednesday, May 29, 2024 9:00 AM WAT
Current time: Wednesday, May 29, 2024 9:53 AM WAT

Nearby weather – Weather history – Daily summaries
Weather forecast

Present weatherDust
Temperature33.0°C (91.4°F)
Heat index37.1°C (98.7°F)
Dew point22.0°C (71.6°F)
Winds 15 kts (7.7 m/s, 17.3 mph) South-Southwest (210°)
Visibility1.9 mi. (3 km)
Altimeter29.88 in.Hg (1012 mB)
Relative humidity53 %
Density altitude2,448 ft. (746 m)
Flight conditions Instrument Meteorological Conditions
Raw dataDRRT 290800Z 21015KT 3000 DU NSC 33/22 Q1012
An error has occurred. This application may no longer respond until reloaded. Reload 🗙